Time;durP1;ratioP1;P1;durP2;ratioP2;P2;SDS_P1;SDS_P2;PMS_P1;PMS_P2;Temp;Humidity;BMP_temperature;BMP_pressure;BME280_temperature;BME280_humidity;BME280_pressure;Samples;Min_cycle;Max_cycle;Signal;HPM_P1;HPM_P2
2022/09/22 00:01:37;;;;;;;3.30;2.77;;;10.40;99.90;;;;;;5052515;28;20478;-49
2022/09/22 00:04:07;;;;;;;3.17;2.80;;;10.40;99.90;;;;;;5051755;28;20444;-52
2022/09/22 00:06:42;;;;;;;3.40;2.53;;;10.30;99.90;;;;;;5052428;28;20452;-51
2022/09/22 00:09:11;;;;;;;3.90;3.20;;;10.20;99.90;;;;;;5052178;28;20463;-48
2022/09/22 00:11:42;;;;;;;5.67;2.97;;;10.10;99.90;;;;;;5052336;28;20428;-49
2022/09/22 00:14:19;;;;;;;4.40;3.37;;;10.10;99.90;;;;;;5051595;28;20429;-50
2022/09/22 00:16:50;;;;;;;6.10;4.00;;;10.20;99.90;;;;;;5052437;28;20434;-49
2022/09/22 00:19:21;;;;;;;3.77;3.37;;;10.20;99.90;;;;;;5053098;28;20439;-51
2022/09/22 00:21:48;;;;;;;4.10;3.03;;;10.10;99.90;;;;;;5052145;28;20841;-51
2022/09/22 00:24:14;;;;;;;3.40;3.07;;;10.00;99.90;;;;;;5051315;28;20427;-51
2022/09/22 00:26:40;;;;;;;4.50;3.87;;;10.00;99.90;;;;;;5052198;28;20452;-46
2022/09/22 00:29:08;;;;;;;3.73;3.37;;;9.90;99.90;;;;;;5051083;28;20809;-52
2022/09/22 00:31:36;;;;;;;4.43;3.30;;;9.80;99.90;;;;;;5051820;28;20516;-50
2022/09/22 00:34:02;;;;;;;3.70;2.83;;;9.60;99.90;;;;;;5051029;28;20946;-49
2022/09/22 00:36:28;;;;;;;3.47;3.10;;;9.50;99.90;;;;;;5051929;28;20428;-50
2022/09/22 00:38:55;;;;;;;5.13;3.20;;;9.30;99.90;;;;;;5051763;28;20489;-51
2022/09/22 00:41:31;;;;;;;6.07;4.07;;;9.30;99.90;;;;;;5051938;28;20424;-49
2022/09/22 00:44:35;;;;;;;4.17;3.20;;;9.40;99.90;;;;;;5051057;28;20435;-52
2022/09/22 00:47:32;;;;;;;5.67;3.60;;;9.40;99.90;;;;;;5051582;28;20477;-49
2022/09/22 00:50:04;;;;;;;2.83;2.63;;;9.40;99.90;;;;;;5050474;28;21029;-47
2022/09/22 00:52:54;;;;;;;3.90;3.03;;;9.30;99.90;;;;;;5037698;28;20500;-48
2022/09/22 00:55:33;;;;;;;5.67;4.03;;;9.30;99.90;;;;;;5050027;28;21158;-53
2022/09/22 00:58:01;;;;;;;3.83;2.93;;;9.30;99.90;;;;;;5051611;28;20448;-49
2022/09/22 01:00:27;;;;;;;6.30;3.20;;;9.50;99.90;;;;;;5051367;28;20459;-52
2022/09/22 01:02:56;;;;;;;2.63;2.23;;;9.40;99.90;;;;;;5050892;28;20455;-50
2022/09/22 01:05:24;;;;;;;3.73;2.70;;;9.50;99.90;;;;;;5050991;28;20440;-50
2022/09/22 01:07:50;;;;;;;4.40;3.33;;;9.50;99.90;;;;;;5051257;28;20420;-51
2022/09/22 01:10:16;;;;;;;2.60;2.40;;;9.50;99.90;;;;;;5049902;28;21359;-54
2022/09/22 01:12:54;;;;;;;2.73;2.53;;;9.50;99.90;;;;;;5050589;28;20494;-50
2022/09/22 01:15:33;;;;;;;3.37;2.90;;;9.60;99.90;;;;;;5051156;28;20784;-54
2022/09/22 01:18:37;;;;;;;3.70;3.03;;;9.60;99.90;;;;;;5050866;28;20440;-49
2022/09/22 01:21:14;;;;;;;4.00;2.37;;;9.50;99.90;;;;;;5054104;28;20442;-49
2022/09/22 01:24:04;;;;;;;2.97;2.67;;;9.40;99.90;;;;;;5050479;28;20926;-51
2022/09/22 01:26:36;;;;;;;4.83;2.53;;;9.00;99.90;;;;;;5050957;28;20421;-52
2022/09/22 01:29:26;;;;;;;2.63;2.43;;;9.40;99.90;;;;;;5050839;28;20456;-50
2022/09/22 01:32:03;;;;;;;2.37;2.03;;;9.40;99.90;;;;;;5050868;28;20770;-53
2022/09/22 01:34:37;;;;;;;2.33;2.13;;;9.30;99.90;;;;;;5049950;28;20416;-51
2022/09/22 01:37:09;;;;;;;3.17;2.87;;;9.40;99.90;;;;;;5050535;28;20423;-48
2022/09/22 01:40:04;;;;;;;3.83;3.47;;;9.40;99.90;;;;;;5049560;28;20943;-52
2022/09/22 01:42:43;;;;;;;2.90;2.40;;;9.20;99.90;;;;;;5038853;28;20968;-50
2022/09/22 01:45:20;;;;;;;5.40;3.40;;;9.30;99.90;;;;;;5050453;28;20522;-48
2022/09/22 01:47:55;;;;;;;3.47;2.50;;;9.40;99.90;;;;;;5050563;28;20416;-50
2022/09/22 01:50:53;;;;;;;5.57;2.67;;;9.60;99.90;;;;;;5049200;28;21047;-50
2022/09/22 01:53:23;;;;;;;2.40;2.20;;;9.60;99.90;;;;;;5048646;28;20912;-49
2022/09/22 01:55:56;;;;;;;5.33;2.93;;;9.60;99.90;;;;;;5050188;28;20470;-52
2022/09/22 01:58:31;;;;;;;2.90;2.23;;;9.60;99.90;;;;;;5050458;28;20435;-50
2022/09/22 02:01:07;;;;;;;3.20;2.17;;;9.80;99.90;;;;;;5050327;28;20412;-47
2022/09/22 02:03:33;;;;;;;2.83;2.17;;;9.80;99.90;;;;;;5049719;28;20435;-49
2022/09/22 02:06:14;;;;;;;4.67;2.17;;;9.80;99.90;;;;;;5050019;28;20448;-52
2022/09/22 02:08:59;;;;;;;3.20;2.13;;;9.80;99.90;;;;;;5050219;28;20420;-53
2022/09/22 02:11:25;;;;;;;2.73;2.13;;;9.60;99.90;;;;;;5050035;28;20420;-50
2022/09/22 02:13:51;;;;;;;2.73;2.20;;;9.50;99.90;;;;;;5049608;28;20466;-50
2022/09/22 02:16:20;;;;;;;3.30;2.30;;;9.30;99.90;;;;;;5049785;28;20259;-50
2022/09/22 02:18:49;;;;;;;3.37;2.10;;;9.20;99.90;;;;;;5049992;28;20416;-51
2022/09/22 02:21:16;;;;;;;12.33;2.90;;;9.30;99.90;;;;;;5050957;28;20424;-49
2022/09/22 02:23:43;;;;;;;5.50;2.30;;;9.00;99.90;;;;;;5049277;28;20420;-52
2022/09/22 02:26:10;;;;;;;3.50;2.23;;;9.00;99.90;;;;;;5049971;28;20788;-50
2022/09/22 02:28:39;;;;;;;2.87;2.20;;;8.90;99.90;;;;;;5049714;28;20446;-51
2022/09/22 02:31:06;;;;;;;3.30;2.43;;;8.90;99.90;;;;;;5050003;28;20419;-52
2022/09/22 02:33:37;;;;;;;3.40;1.90;;;8.90;99.90;;;;;;5049152;28;20459;-49
2022/09/22 02:36:17;;;;;;;2.20;2.00;;;8.30;99.90;;;;;;5049916;28;20431;-51
2022/09/22 02:39:10;;;;;;;3.97;1.97;;;8.70;99.90;;;;;;5049840;28;20448;-50
2022/09/22 02:41:55;;;;;;;4.13;2.20;;;8.70;99.90;;;;;;5051227;28;20797;-48
2022/09/22 02:44:35;;;;;;;2.20;1.90;;;8.80;99.90;;;;;;5049119;28;20427;-48
2022/09/22 02:47:26;;;;;;;2.80;1.70;;;8.70;99.90;;;;;;5049766;28;20498;-51
2022/09/22 02:49:54;;;;;;;2.90;2.20;;;8.70;99.90;;;;;;5049688;28;20554;-47
2022/09/22 02:52:22;;;;;;;4.07;2.07;;;8.60;99.90;;;;;;5049419;28;20760;-53
2022/09/22 02:54:47;;;;;;;2.50;1.93;;;8.60;99.90;;;;;;5051947;28;20424;-48
2022/09/22 02:57:13;;;;;;;2.03;1.90;;;8.60;99.90;;;;;;5053604;28;20412;-51
2022/09/22 02:59:39;;;;;;;2.03;1.70;;;8.60;99.90;;;;;;5053799;28;20280;-52
2022/09/22 03:02:04;;;;;;;2.73;1.83;;;8.50;99.90;;;;;;5053275;28;20217;-51
2022/09/22 03:04:30;;;;;;;3.13;1.70;;;8.40;99.90;;;;;;5052891;28;20209;-51
2022/09/22 03:06:56;;;;;;;2.83;1.80;;;8.40;99.90;;;;;;5053424;28;20209;-49
2022/09/22 03:09:22;;;;;;;2.90;1.50;;;8.40;99.90;;;;;;5053335;28;20495;-51
2022/09/22 03:11:47;;;;;;;3.17;2.20;;;8.50;99.90;;;;;;5053428;28;20682;-49
2022/09/22 03:14:13;;;;;;;1.40;1.30;;;8.30;99.90;;;;;;5052823;28;20181;-48
2022/09/22 03:16:38;;;;;;;1.67;1.57;;;8.30;99.90;;;;;;5053081;28;20186;-52
2022/09/22 03:19:05;;;;;;;1.77;1.67;;;8.40;99.90;;;;;;5053936;28;20655;-50
2022/09/22 03:21:30;;;;;;;2.47;2.00;;;8.30;99.90;;;;;;5052469;28;20206;-49
2022/09/22 03:23:56;;;;;;;1.97;1.60;;;8.30;99.90;;;;;;5052634;28;20424;-48
2022/09/22 03:26:21;;;;;;;2.40;1.73;;;8.30;99.90;;;;;;5053248;28;20847;-52
2022/09/22 03:28:47;;;;;;;1.80;1.70;;;8.00;99.90;;;;;;5053192;28;20323;-52
2022/09/22 03:31:13;;;;;;;2.30;2.10;;;8.30;99.90;;;;;;5052834;28;20189;-51
2022/09/22 03:33:39;;;;;;;3.50;1.70;;;8.30;99.90;;;;;;5052581;28;20200;-48
2022/09/22 03:36:05;;;;;;;3.57;2.20;;;8.30;99.90;;;;;;5052986;28;20519;-49
2022/09/22 03:38:31;;;;;;;2.90;1.70;;;8.30;99.90;;;;;;5053025;28;20194;-51
2022/09/22 03:40:57;;;;;;;2.90;2.03;;;8.50;99.90;;;;;;5052866;28;20704;-49
2022/09/22 03:43:24;;;;;;;2.53;2.20;;;8.30;99.90;;;;;;5052239;28;20494;-52
2022/09/22 03:46:00;;;;;;;7.13;1.80;;;8.50;99.90;;;;;;5052598;28;20435;-50
2022/09/22 03:48:27;;;;;;;3.43;1.50;;;8.30;99.90;;;;;;5052943;28;20423;-47
2022/09/22 03:50:54;;;;;;;3.40;2.10;;;8.40;99.90;;;;;;5052626;28;20958;-50
2022/09/22 03:53:20;;;;;;;3.23;2.20;;;8.20;99.90;;;;;;5050791;28;20416;-49
2022/09/22 03:55:45;;;;;;;1.80;1.60;;;8.30;99.90;;;;;;5052496;28;20420;-49
2022/09/22 03:58:11;;;;;;;1.80;1.70;;;7.90;99.90;;;;;;5052400;28;20428;-48
2022/09/22 04:00:37;;;;;;;1.70;1.60;;;8.20;99.90;;;;;;5052498;28;20208;-51
2022/09/22 04:03:03;;;;;;;2.57;1.80;;;8.10;99.90;;;;;;5051857;28;20197;-48
2022/09/22 04:05:28;;;;;;;1.73;1.47;;;8.20;99.90;;;;;;5052278;28;20205;-49
2022/09/22 04:07:54;;;;;;;6.60;2.00;;;8.20;99.90;;;;;;5052397;28;20629;-53
2022/09/22 04:10:20;;;;;;;2.03;1.63;;;8.40;99.90;;;;;;5052454;28;20229;-51
2022/09/22 04:12:46;;;;;;;2.90;1.90;;;8.20;99.90;;;;;;5051457;28;20419;-51
2022/09/22 04:15:12;;;;;;;1.50;1.40;;;8.10;99.90;;;;;;5052570;28;20432;-52
2022/09/22 04:17:37;;;;;;;2.83;1.83;;;8.30;99.90;;;;;;5052195;28;20585;-50
2022/09/22 04:20:04;;;;;;;2.00;1.83;;;8.00;99.90;;;;;;5053346;28;20189;-51
2022/09/22 04:22:30;;;;;;;2.17;1.50;;;8.10;99.90;;;;;;5051785;28;20189;-49
2022/09/22 04:24:56;;;;;;;2.40;2.00;;;8.00;99.90;;;;;;5051884;28;20498;-51
2022/09/22 04:27:22;;;;;;;1.87;1.70;;;8.20;99.90;;;;;;5051674;28;20214;-51
2022/09/22 04:29:48;;;;;;;1.90;1.50;;;8.00;99.90;;;;;;5052121;28;20468;-49
2022/09/22 04:32:14;;;;;;;2.23;1.53;;;8.00;99.90;;;;;;5051858;28;20440;-51
2022/09/22 04:34:40;;;;;;;2.90;1.57;;;8.10;99.90;;;;;;5051591;28;20423;-51
2022/09/22 04:37:06;;;;;;;3.33;1.63;;;8.00;99.90;;;;;;5051709;28;20416;-50
2022/09/22 04:39:32;;;;;;;2.50;1.43;;;7.90;99.90;;;;;;5050710;28;20482;-49
2022/09/22 04:41:57;;;;;;;2.03;1.33;;;7.90;99.90;;;;;;5051494;28;20228;-50
2022/09/22 04:44:23;;;;;;;1.73;1.57;;;8.00;99.90;;;;;;5051404;28;20213;-50
2022/09/22 04:46:49;;;;;;;2.80;1.80;;;7.80;99.90;;;;;;5050840;28;20181;-53
2022/09/22 04:49:15;;;;;;;2.30;1.60;;;7.80;99.90;;;;;;5050636;28;20214;-49
2022/09/22 04:51:41;;;;;;;3.37;1.40;;;7.70;99.90;;;;;;5050709;28;20740;-49
2022/09/22 04:54:07;;;;;;;2.33;1.87;;;7.80;99.90;;;;;;5049634;28;20451;-52
2022/09/22 04:56:32;;;;;;;3.33;1.93;;;7.80;99.90;;;;;;5044279;28;20197;-51
2022/09/22 04:58:58;;;;;;;1.97;1.80;;;7.80;99.90;;;;;;5051415;28;20219;-52
2022/09/22 05:01:26;;;;;;;2.40;2.10;;;7.70;99.90;;;;;;5051279;28;20542;-53
2022/09/22 05:03:52;;;;;;;2.67;2.00;;;7.70;99.90;;;;;;5049504;28;20199;-53
2022/09/22 05:06:18;;;;;;;2.67;2.00;;;7.80;99.90;;;;;;5050095;28;20923;-51
2022/09/22 05:08:44;;;;;;;2.10;1.90;;;7.50;99.90;;;;;;5057723;28;20443;-49
2022/09/22 05:11:11;;;;;;;2.30;2.13;;;7.70;99.90;;;;;;5054147;28;20712;-49
2022/09/22 05:13:39;;;;;;;2.07;1.77;;;7.70;99.90;;;;;;5050047;28;20186;-50
2022/09/22 05:16:07;;;;;;;3.03;1.93;;;7.80;99.90;;;;;;5051516;28;20424;-52
2022/09/22 05:18:33;;;;;;;3.30;1.97;;;7.80;99.90;;;;;;5059154;28;20411;-51
2022/09/22 05:21:00;;;;;;;4.63;2.30;;;7.60;99.90;;;;;;5056168;28;20412;-48
2022/09/22 05:23:27;;;;;;;3.63;2.30;;;7.80;99.90;;;;;;5050103;28;20431;-51
2022/09/22 05:25:53;;;;;;;2.47;2.27;;;7.60;99.90;;;;;;5049846;28;20425;-49
2022/09/22 05:28:21;;;;;;;5.27;2.30;;;7.70;99.90;;;;;;5050306;28;20515;-54
2022/09/22 05:30:49;;;;;;;3.00;2.13;;;7.60;99.90;;;;;;5050691;28;20869;-49
2022/09/22 05:33:15;;;;;;;3.60;2.50;;;7.70;99.90;;;;;;5050112;28;20424;-49
2022/09/22 05:35:41;;;;;;;4.87;3.17;;;7.70;99.90;;;;;;5050854;28;20419;-52
2022/09/22 05:38:07;;;;;;;2.13;1.93;;;7.80;99.90;;;;;;5050445;28;20420;-51
2022/09/22 05:40:33;;;;;;;2.60;2.40;;;7.80;99.90;;;;;;5050633;28;20209;-51
2022/09/22 05:42:58;;;;;;;4.03;2.43;;;7.80;99.90;;;;;;5050176;28;20198;-50
2022/09/22 05:45:24;;;;;;;5.40;2.47;;;7.70;99.90;;;;;;5050585;28;20268;-52
2022/09/22 05:47:50;;;;;;;2.30;2.10;;;7.80;99.90;;;;;;5050616;28;20178;-49
2022/09/22 05:50:17;;;;;;;4.40;2.70;;;7.20;99.90;;;;;;5050338;28;20205;-51
2022/09/22 05:52:43;;;;;;;2.60;2.40;;;7.80;99.90;;;;;;5049729;28;20424;-49
2022/09/22 05:55:10;;;;;;;3.63;2.10;;;7.70;99.90;;;;;;5050916;28;21010;-50
2022/09/22 05:57:36;;;;;;;5.77;2.47;;;7.80;99.90;;;;;;5066520;28;20220;-49
2022/09/22 06:00:04;;;;;;;2.87;2.53;;;7.80;99.90;;;;;;5042209;28;20456;-50
2022/09/22 06:02:30;;;;;;;3.53;2.47;;;7.70;99.90;;;;;;5049901;28;20196;-51
2022/09/22 06:04:56;;;;;;;3.00;2.70;;;7.60;99.90;;;;;;5049676;28;20448;-50
2022/09/22 06:07:25;;;;;;;2.43;2.23;;;8.10;99.90;;;;;;5049815;28;20192;-48
2022/09/22 06:09:51;;;;;;;2.27;2.07;;;8.30;99.90;;;;;;5048713;28;20487;-50
2022/09/22 06:12:17;;;;;;;4.03;2.17;;;8.60;99.90;;;;;;5049795;28;20416;-51
2022/09/22 06:14:43;;;;;;;3.17;2.40;;;8.70;99.90;;;;;;5051250;28;20506;-51
2022/09/22 06:17:09;;;;;;;2.70;2.20;;;8.80;99.90;;;;;;5048461;28;20499;-47
2022/09/22 06:19:35;;;;;;;3.10;2.63;;;9.00;99.90;;;;;;5050674;28;20182;-49
2022/09/22 06:22:01;;;;;;;2.97;2.30;;;9.50;99.90;;;;;;5049671;28;20510;-51
2022/09/22 06:24:27;;;;;;;4.17;2.30;;;9.30;99.90;;;;;;5049393;28;20201;-51
2022/09/22 06:26:53;;;;;;;3.37;2.53;;;9.50;99.90;;;;;;5045637;28;20555;-47
2022/09/22 06:29:19;;;;;;;2.80;2.60;;;9.60;99.90;;;;;;5048502;28;20495;-49
2022/09/22 06:31:44;;;;;;;4.10;2.73;;;9.60;99.90;;;;;;5048837;28;20201;-47
2022/09/22 06:34:10;;;;;;;3.27;2.77;;;9.60;99.90;;;;;;5051368;28;20185;-50
2022/09/22 06:36:36;;;;;;;3.07;2.50;;;9.50;99.90;;;;;;5058545;28;20186;-48
2022/09/22 06:39:04;;;;;;;4.53;2.40;;;9.60;99.90;;;;;;5051337;28;20269;-51
2022/09/22 06:41:31;;;;;;;3.30;2.70;;;9.60;99.90;;;;;;5053629;28;20186;-50
2022/09/22 06:43:57;;;;;;;3.00;2.27;;;9.60;99.90;;;;;;5048296;28;20420;-49
2022/09/22 06:46:25;;;;;;;3.37;2.50;;;9.60;99.90;;;;;;5049418;28;20420;-48
2022/09/22 06:48:56;;;;;;;4.87;2.70;;;9.60;99.90;;;;;;5050429;28;20432;-50
2022/09/22 06:51:24;;;;;;;6.17;2.83;;;9.70;99.90;;;;;;5047412;28;20436;-47
2022/09/22 06:53:50;;;;;;;4.67;3.37;;;9.70;99.90;;;;;;5056151;28;20432;-49
2022/09/22 06:56:18;;;;;;;3.57;3.23;;;9.80;99.90;;;;;;5049528;28;20466;-50
2022/09/22 06:58:44;;;;;;;3.93;2.83;;;9.80;99.90;;;;;;5048317;28;20182;-49
2022/09/22 07:01:10;;;;;;;5.90;3.47;;;10.00;99.90;;;;;;5060844;28;20419;-51
2022/09/22 07:03:40;;;;;;;5.10;3.20;;;10.20;99.90;;;;;;5068840;28;20424;-52
2022/09/22 07:06:07;;;;;;;3.57;3.07;;;10.40;99.90;;;;;;5069625;28;20493;-47
2022/09/22 07:08:34;;;;;;;4.30;2.80;;;10.60;99.90;;;;;;5069523;28;20429;-49
2022/09/22 07:11:03;;;;;;;6.33;3.03;;;10.80;99.90;;;;;;5069596;28;20447;-51
2022/09/22 07:13:31;;;;;;;3.53;2.90;;;11.00;99.90;;;;;;5035457;28;20424;-53
2022/09/22 07:16:01;;;;;;;4.47;2.77;;;11.30;99.90;;;;;;5049562;28;20420;-48
2022/09/22 07:18:28;;;;;;;6.97;3.20;;;11.50;99.90;;;;;;5049391;28;20478;-49
2022/09/22 07:21:23;;;;;;;5.00;2.73;;;11.70;99.90;;;;;;5050255;28;20801;-50
2022/09/22 07:23:50;;;;;;;4.43;2.70;;;12.00;99.90;;;;;;5048418;28;20817;-50
2022/09/22 07:26:18;;;;;;;4.53;2.50;;;12.20;99.90;;;;;;5049476;28;20420;-53
2022/09/22 07:28:49;;;;;;;3.80;2.10;;;12.40;99.90;;;;;;5048971;28;20915;-54
2022/09/22 07:31:16;;;;;;;4.13;2.43;;;12.50;99.90;;;;;;5049519;28;20886;-48
2022/09/22 07:33:43;;;;;;;6.83;3.00;;;12.70;99.90;;;;;;5048596;28;20805;-48
2022/09/22 07:36:10;;;;;;;4.93;2.43;;;13.00;99.90;;;;;;5049312;28;20778;-48
2022/09/22 07:38:38;;;;;;;3.50;2.20;;;13.20;99.90;;;;;;5049409;28;20510;-47
2022/09/22 07:41:08;;;;;;;2.53;2.20;;;13.40;99.90;;;;;;5050687;28;20751;-51
2022/09/22 07:43:34;;;;;;;2.97;2.40;;;13.60;99.90;;;;;;5050594;28;20495;-51
2022/09/22 07:46:01;;;;;;;3.33;2.57;;;13.80;99.90;;;;;;5052981;28;20554;-52
2022/09/22 07:48:35;;;;;;;2.43;2.03;;;14.00;99.90;;;;;;5051318;28;20481;-53
2022/09/22 07:51:01;;;;;;;3.30;2.20;;;14.20;99.90;;;;;;5041227;28;20466;-51
2022/09/22 07:53:27;;;;;;;4.07;2.10;;;14.40;99.90;;;;;;5051108;28;20416;-47
2022/09/22 07:55:52;;;;;;;3.13;1.87;;;14.60;99.90;;;;;;5051904;28;20478;-52
2022/09/22 07:58:19;;;;;;;3.00;2.13;;;14.80;99.90;;;;;;5052500;28;20674;-49
2022/09/22 08:00:45;;;;;;;2.07;1.90;;;14.90;99.90;;;;;;5052912;28;20181;-48
2022/09/22 08:03:11;;;;;;;5.33;1.50;;;15.10;99.90;;;;;;5051804;28;20901;-48
2022/09/22 08:05:38;;;;;;;2.20;2.00;;;15.10;99.90;;;;;;5052611;28;20213;-48
2022/09/22 08:08:04;;;;;;;3.00;1.90;;;15.10;99.90;;;;;;5052385;28;20745;-54
2022/09/22 08:10:34;;;;;;;3.80;1.77;;;15.10;99.90;;;;;;5052122;28;20455;-50
2022/09/22 08:13:01;;;;;;;3.73;2.07;;;15.10;99.90;;;;;;5051709;28;20424;-49
2022/09/22 08:15:27;;;;;;;6.30;2.37;;;15.00;99.90;;;;;;5052473;28;20779;-48
2022/09/22 08:18:02;;;;;;;3.03;1.90;;;15.00;99.90;;;;;;5052304;28;20412;-51
2022/09/22 08:20:28;;;;;;;3.73;2.50;;;15.00;99.90;;;;;;5052332;28;20216;-53
2022/09/22 08:22:56;;;;;;;3.67;2.20;;;15.00;99.90;;;;;;5051403;28;20440;-47
2022/09/22 08:25:24;;;;;;;4.60;2.20;;;15.00;99.90;;;;;;5050839;28;20424;-51
2022/09/22 08:27:50;;;;;;;3.50;2.13;;;15.00;99.90;;;;;;5050677;28;20482;-49
2022/09/22 08:30:16;;;;;;;3.10;2.10;;;15.10;99.90;;;;;;5050654;28;20552;-49
2022/09/22 08:32:41;;;;;;;2.90;2.40;;;15.10;99.90;;;;;;5049989;28;20590;-50
2022/09/22 08:35:08;;;;;;;2.60;1.70;;;15.20;99.90;;;;;;5050600;28;20178;-47
2022/09/22 08:37:34;;;;;;;2.23;1.70;;;15.20;99.90;;;;;;5050271;28;20232;-47
2022/09/22 08:40:00;;;;;;;3.53;2.60;;;15.30;99.90;;;;;;5050693;28;20427;-51
2022/09/22 08:42:27;;;;;;;3.33;2.10;;;15.30;99.90;;;;;;5050271;28;20420;-48
2022/09/22 08:45:00;;;;;;;2.50;2.07;;;15.30;99.90;;;;;;5050079;28;20424;-51
2022/09/22 08:53:31;;;;;;;3.10;1.80;;;15.50;99.90;;;;;;5049167;28;20424;-50
2022/09/22 08:56:05;;;;;;;3.73;2.10;;;15.60;99.90;;;;;;5050379;28;21246;-47
2022/09/22 08:58:47;;;;;;;2.23;2.00;;;15.70;99.90;;;;;;5050318;28;21140;-47
2022/09/22 09:01:45;;;;;;;4.43;1.40;;;15.70;99.90;;;;;;5050830;28;20477;-49
2022/09/22 09:04:35;;;;;;;1.87;1.40;;;15.80;99.90;;;;;;5052141;28;20454;-48
2022/09/22 09:07:42;;;;;;;1.73;1.63;;;15.90;99.90;;;;;;5049989;28;20424;-49
2022/09/22 09:10:17;;;;;;;6.63;1.90;;;16.00;99.90;;;;;;5051335;28;20466;-47
2022/09/22 09:12:58;;;;;;;1.53;1.43;;;16.20;99.90;;;;;;5050510;28;20428;-48
2022/09/22 09:15:32;;;;;;;3.63;1.77;;;16.30;99.90;;;;;;5051449;28;20424;-48
2022/09/22 09:18:02;;;;;;;3.00;2.17;;;16.40;99.90;;;;;;5051181;28;20424;-50
2022/09/22 09:20:39;;;;;;;2.87;1.60;;;16.50;99.90;;;;;;5052414;28;20511;-50
2022/09/22 09:23:14;;;;;;;2.07;1.53;;;16.60;99.90;;;;;;5050445;28;20470;-49
2022/09/22 09:25:41;;;;;;;1.57;1.47;;;16.70;99.90;;;;;;5051105;28;20431;-49
2022/09/22 09:28:32;;;;;;;3.13;2.23;;;16.90;99.90;;;;;;5050976;28;20428;-48
2022/09/22 09:31:17;;;;;;;1.83;1.53;;;17.00;99.90;;;;;;5052421;28;20471;-52
2022/09/22 09:34:13;;;;;;;1.67;1.50;;;17.20;99.90;;;;;;5050101;28;20527;-48
2022/09/22 09:36:43;;;;;;;1.77;1.40;;;17.20;99.90;;;;;;5054365;28;20428;-48
2022/09/22 09:39:15;;;;;;;3.33;1.60;;;17.30;99.20;;;;;;5050782;28;20992;-49
2022/09/22 09:41:45;;;;;;;1.53;1.40;;;17.40;99.90;;;;;;5050805;28;20428;-50
2022/09/22 09:44:30;;;;;;;3.37;1.33;;;17.50;99.70;;;;;;5049892;28;20467;-51
2022/09/22 09:47:46;;;;;;;1.77;1.40;;;17.60;98.90;;;;;;5050446;28;20471;-48
2022/09/22 09:50:13;;;;;;;5.50;1.80;;;17.80;98.80;;;;;;5059464;28;20557;-49
2022/09/22 09:52:39;;;;;;;1.30;1.20;;;17.90;98.30;;;;;;5049934;28;20991;-47
2022/09/22 09:55:34;;;;;;;4.67;1.37;;;18.00;98.70;;;;;;5049162;28;20447;-48
2022/09/22 09:58:11;;;;;;;1.70;1.30;;;18.20;98.90;;;;;;5050670;28;20201;-48
2022/09/22 10:01:08;;;;;;;1.67;1.37;;;18.30;98.40;;;;;;5050424;28;20779;-49
2022/09/22 10:03:39;;;;;;;1.43;1.33;;;18.50;98.50;;;;;;5049170;28;20439;-48
2022/09/22 10:06:09;;;;;;;2.60;1.10;;;18.50;96.80;;;;;;5050571;28;20436;-50
2022/09/22 10:08:44;;;;;;;2.53;1.10;;;18.50;95.90;;;;;;5050145;28;20431;-50
2022/09/22 10:11:11;;;;;;;1.80;1.00;;;18.60;96.70;;;;;;5049899;28;20845;-49
2022/09/22 10:13:39;;;;;;;1.93;1.00;;;18.60;95.60;;;;;;5049525;28;20525;-47
2022/09/22 10:16:19;;;;;;;2.07;0.90;;;18.60;93.80;;;;;;5048929;28;20785;-53
2022/09/22 10:18:46;;;;;;;2.50;1.30;;;18.60;94.10;;;;;;5050044;28;20458;-46
2022/09/22 10:21:19;;;;;;;2.00;1.00;;;18.60;94.80;;;;;;5051602;28;20436;-48
2022/09/22 10:23:49;;;;;;;1.00;0.90;;;18.60;94.00;;;;;;5049063;28;20454;-47
2022/09/22 10:26:16;;;;;;;1.87;1.07;;;18.60;94.10;;;;;;5050143;28;20779;-49
2022/09/22 10:28:42;;;;;;;1.27;0.80;;;18.60;93.70;;;;;;5049924;28;20566;-52
2022/09/22 10:31:19;;;;;;;1.50;0.90;;;18.50;93.30;;;;;;5050020;28;20461;-49
2022/09/22 10:33:55;;;;;;;2.90;0.90;;;18.40;93.80;;;;;;5049313;28;20450;-51
2022/09/22 10:36:24;;;;;;;2.83;1.20;;;18.30;94.00;;;;;;5049782;28;20416;-47
2022/09/22 10:38:51;;;;;;;2.00;1.80;;;18.50;93.70;;;;;;5049622;28;20423;-48
2022/09/22 10:41:22;;;;;;;2.60;1.17;;;18.50;93.70;;;;;;5050073;28;20419;-48
2022/09/22 10:43:53;;;;;;;1.87;1.20;;;18.60;93.50;;;;;;5048948;28;20420;-46
2022/09/22 10:46:48;;;;;;;1.40;1.00;;;18.70;92.80;;;;;;5049887;28;20420;-48
2022/09/22 10:49:37;;;;;;;2.33;1.03;;;18.80;93.20;;;;;;5049540;28;20467;-49
2022/09/22 10:52:38;;;;;;;1.30;0.90;;;18.80;93.60;;;;;;5049761;28;20432;-49
2022/09/22 10:55:44;;;;;;;1.40;1.00;;;18.70;93.70;;;;;;5048195;28;20937;-48
2022/09/22 10:58:43;;;;;;;2.00;0.93;;;18.50;93.00;;;;;;5048542;28;20460;-46
2022/09/22 11:01:30;;;;;;;1.97;1.30;;;18.30;93.20;;;;;;5049347;28;20446;-52
2022/09/22 11:04:06;;;;;;;1.93;1.17;;;18.30;93.10;;;;;;5048840;28;20412;-48
2022/09/22 11:13:16;;;;;;;0.97;0.77;;;18.60;92.80;;;;;;5049334;28;20499;-49
2022/09/22 11:16:24;;;;;;;1.27;1.00;;;18.60;92.20;;;;;;5055754;28;20424;-48
2022/09/22 11:19:34;;;;;;;2.97;1.00;;;18.70;92.50;;;;;;5053521;28;20420;-49
2022/09/22 11:22:29;;;;;;;1.43;1.03;;;18.70;91.50;;;;;;5034749;28;20501;-50
2022/09/22 11:25:20;;;;;;;1.20;0.90;;;18.70;91.40;;;;;;5053126;28;20818;-50
2022/09/22 11:28:06;;;;;;;1.13;0.90;;;18.70;90.70;;;;;;5053327;28;20803;-48
2022/09/22 11:30:44;;;;;;;1.00;0.80;;;18.60;90.20;;;;;;5053019;28;21084;-48
2022/09/22 11:33:35;;;;;;;2.13;0.93;;;18.60;90.10;;;;;;5052623;28;20412;-49
2022/09/22 11:36:38;;;;;;;1.10;0.90;;;18.70;91.00;;;;;;5053168;28;20944;-48
2022/09/22 11:39:22;;;;;;;1.40;1.30;;;18.80;91.10;;;;;;5052978;28;20469;-46
2022/09/22 11:42:06;;;;;;;1.10;1.00;;;18.90;89.60;;;;;;5053109;28;20945;-48
2022/09/22 11:44:55;;;;;;;1.93;0.80;;;19.00;91.40;;;;;;5052584;28;20416;-49
2022/09/22 11:47:50;;;;;;;1.37;0.83;;;19.10;90.50;;;;;;5053013;28;20416;-51
2022/09/22 11:50:44;;;;;;;1.30;0.83;;;19.20;90.00;;;;;;5052709;28;20551;-47
2022/09/22 11:53:22;;;;;;;1.20;0.90;;;19.20;86.50;;;;;;5051695;28;20428;-49
2022/09/22 11:56:05;;;;;;;1.23;1.00;;;19.10;86.30;;;;;;5052137;28;20485;-48
2022/09/22 11:58:37;;;;;;;1.10;1.00;;;19.10;86.80;;;;;;5052632;28;20424;-49
2022/09/22 12:01:13;;;;;;;1.70;0.90;;;19.10;84.80;;;;;;5052444;28;20432;-49
2022/09/22 12:03:47;;;;;;;1.00;0.90;;;19.00;85.20;;;;;;5053540;28;20428;-48
2022/09/22 12:06:21;;;;;;;1.03;0.93;;;18.90;86.70;;;;;;5052490;28;20428;-52
2022/09/22 12:08:51;;;;;;;3.47;0.87;;;18.80;87.50;;;;;;5051649;28;20443;-51
2022/09/22 12:11:19;;;;;;;1.40;0.90;;;18.80;86.10;;;;;;5052315;28;21135;-52
2022/09/22 12:13:47;;;;;;;1.60;1.30;;;18.80;88.10;;;;;;5051814;28;20440;-48
2022/09/22 12:16:30;;;;;;;0.90;0.90;;;18.90;89.20;;;;;;5051985;28;20420;-49
2022/09/22 12:19:20;;;;;;;1.47;1.00;;;18.90;86.20;;;;;;5063897;28;20924;-50
2022/09/22 12:22:03;;;;;;;0.83;0.80;;;19.00;86.70;;;;;;5063689;28;21047;-51
2022/09/22 12:24:30;;;;;;;2.30;1.10;;;19.10;87.00;;;;;;5039647;28;20440;-48
2022/09/22 12:26:56;;;;;;;1.70;1.20;;;19.10;86.40;;;;;;5047646;28;20436;-51
2022/09/22 12:29:28;;;;;;;1.10;1.00;;;19.10;84.70;;;;;;5053491;28;20455;-50
2022/09/22 12:31:56;;;;;;;1.73;0.90;;;19.10;86.50;;;;;;5038732;28;20432;-49
2022/09/22 12:34:28;;;;;;;1.30;1.10;;;19.00;85.50;;;;;;5055639;28;20466;-46
2022/09/22 12:37:18;;;;;;;2.50;1.10;;;19.00;87.30;;;;;;5071577;28;20430;-49
2022/09/22 12:39:47;;;;;;;0.80;0.80;;;19.00;87.60;;;;;;5070294;28;20423;-48
2022/09/22 12:42:38;;;;;;;1.97;1.10;;;19.20;89.10;;;;;;5051425;28;20495;-50
2022/09/22 12:45:19;;;;;;;1.10;1.00;;;19.20;86.90;;;;;;5049781;28;20856;-46
2022/09/22 12:47:51;;;;;;;1.00;0.90;;;19.20;85.20;;;;;;5039144;28;20416;-53
2022/09/22 12:50:23;;;;;;;1.00;0.80;;;19.30;88.40;;;;;;5051312;28;20459;-48
2022/09/22 12:52:52;;;;;;;1.13;0.90;;;19.30;85.20;;;;;;5050794;28;21037;-49
2022/09/22 12:55:27;;;;;;;2.37;1.10;;;19.40;85.60;;;;;;5050645;28;20424;-48
2022/09/22 12:58:00;;;;;;;2.20;1.37;;;19.40;86.20;;;;;;5051092;28;20935;-48
2022/09/22 13:00:39;;;;;;;2.27;1.30;;;19.40;86.70;;;;;;5051371;28;20416;-49
2022/09/22 13:03:23;;;;;;;1.20;1.10;;;19.40;82.50;;;;;;5050521;28;20468;-52
2022/09/22 13:05:57;;;;;;;1.63;0.97;;;19.50;83.00;;;;;;5051246;28;20446;-49
2022/09/22 13:08:28;;;;;;;2.37;1.20;;;19.50;85.30;;;;;;5050687;28;20432;-47
2022/09/22 13:10:59;;;;;;;1.47;1.20;;;19.50;86.20;;;;;;5051079;28;20535;-48
2022/09/22 13:13:30;;;;;;;2.30;1.57;;;19.50;83.90;;;;;;5056380;28;20477;-50
2022/09/22 13:16:01;;;;;;;1.17;1.07;;;19.60;84.40;;;;;;5071051;28;20403;-48
2022/09/22 13:18:36;;;;;;;1.10;1.00;;;19.70;86.80;;;;;;5050138;28;20515;-49
2022/09/22 13:21:13;;;;;;;2.00;1.47;;;19.70;85.20;;;;;;5051913;28;20479;-51
2022/09/22 13:23:48;;;;;;;1.40;1.30;;;19.70;82.90;;;;;;5046380;28;20456;-48
2022/09/22 13:26:15;;;;;;;1.50;1.40;;;19.50;83.00;;;;;;5042937;28;20526;-48
2022/09/22 13:28:41;;;;;;;2.20;1.33;;;19.50;83.90;;;;;;5050215;28;20523;-49
2022/09/22 13:31:16;;;;;;;1.43;1.33;;;19.50;85.70;;;;;;5051249;28;20817;-51
2022/09/22 13:33:43;;;;;;;1.20;1.10;;;19.50;85.00;;;;;;5043587;28;20424;-51